sensor_id;sensor_type;location;lat;lon;timestamp;pressure;altitude;pressure_sealevel;temperature;humidity
50672;BME280;46021;55.882;37.654;2023-08-12T00:00:02;99729.00;;;19.94;79.13
50672;BME280;46021;55.882;37.654;2023-08-12T00:02:37;99723.09;;;19.90;79.29
50672;BME280;46021;55.882;37.654;2023-08-12T00:05:04;99733.03;;;19.86;79.39
50672;BME280;46021;55.882;37.654;2023-08-12T00:07:31;99728.81;;;19.84;80.22
50672;BME280;46021;55.882;37.654;2023-08-12T00:10:00;99719.69;;;19.75;78.98
50672;BME280;46021;55.882;37.654;2023-08-12T00:12:29;99732.19;;;19.73;79.36
50672;BME280;46021;55.882;37.654;2023-08-12T00:14:56;99739.88;;;19.63;79.98
50672;BME280;46021;55.882;37.654;2023-08-12T00:17:23;99760.50;;;19.58;80.32
50672;BME280;46021;55.882;37.654;2023-08-12T00:19:50;99731.94;;;19.51;79.81
50672;BME280;46021;55.882;37.654;2023-08-12T00:22:17;99731.75;;;19.54;80.12
50672;BME280;46021;55.882;37.654;2023-08-12T00:24:44;99752.69;;;19.57;80.68
50672;BME280;46021;55.882;37.654;2023-08-12T00:27:13;99750.88;;;19.57;80.13
50672;BME280;46021;55.882;37.654;2023-08-12T00:29:40;99726.44;;;19.54;80.33
50672;BME280;46021;55.882;37.654;2023-08-12T00:32:08;99740.84;;;19.62;80.11
50672;BME280;46021;55.882;37.654;2023-08-12T00:34:35;99731.00;;;19.64;80.61
50672;BME280;46021;55.882;37.654;2023-08-12T00:37:04;99741.50;;;19.66;80.34
50672;BME280;46021;55.882;37.654;2023-08-12T00:39:31;99754.72;;;19.66;79.45
50672;BME280;46021;55.882;37.654;2023-08-12T00:41:58;99743.25;;;19.65;80.46
50672;BME280;46021;55.882;37.654;2023-08-12T00:44:26;99753.19;;;19.62;79.62
50672;BME280;46021;55.882;37.654;2023-08-12T00:46:53;99739.97;;;19.62;80.12
50672;BME280;46021;55.882;37.654;2023-08-12T00:49:21;99741.16;;;19.58;80.62
50672;BME280;46021;55.882;37.654;2023-08-12T00:51:50;99741.88;;;19.60;80.45
50672;BME280;46021;55.882;37.654;2023-08-12T00:54:20;99740.22;;;19.59;80.79
50672;BME280;46021;55.882;37.654;2023-08-12T00:56:48;99739.78;;;19.65;80.42
50672;BME280;46021;55.882;37.654;2023-08-12T00:59:17;99741.59;;;19.64;80.59
50672;BME280;46021;55.882;37.654;2023-08-12T01:01:48;99744.13;;;19.66;80.29
50672;BME280;46021;55.882;37.654;2023-08-12T01:04:16;99743.16;;;19.67;80.61
50672;BME280;46021;55.882;37.654;2023-08-12T01:06:43;99746.38;;;19.72;79.90
50672;BME280;46021;55.882;37.654;2023-08-12T01:09:10;99755.44;;;19.68;80.55
50672;BME280;46021;55.882;37.654;2023-08-12T01:11:44;99755.44;;;19.68;79.72
50672;BME280;46021;55.882;37.654;2023-08-12T01:14:17;99756.38;;;19.67;79.60
50672;BME280;46021;55.882;37.654;2023-08-12T01:16:51;99752.06;;;19.66;80.51
50672;BME280;46021;55.882;37.654;2023-08-12T01:19:25;99745.06;;;19.65;80.48
50672;BME280;46021;55.882;37.654;2023-08-12T01:21:59;99741.50;;;19.66;80.14
50672;BME280;46021;55.882;37.654;2023-08-12T01:24:35;99740.53;;;19.67;79.84
50672;BME280;46021;55.882;37.654;2023-08-12T01:27:04;99732.19;;;19.73;79.97
50672;BME280;46021;55.882;37.654;2023-08-12T01:29:32;99737.19;;;19.78;79.33
50672;BME280;46021;55.882;37.654;2023-08-12T01:32:16;99733.47;;;19.80;78.86
50672;BME280;46021;55.882;37.654;2023-08-12T01:34:50;99741.50;;;19.79;78.90
50672;BME280;46021;55.882;37.654;2023-08-12T01:37:23;99743.41;;;19.90;78.22
50672;BME280;46021;55.882;37.654;2023-08-12T01:39:54;99748.50;;;19.93;78.36
50672;BME280;46021;55.882;37.654;2023-08-12T01:42:22;99751.34;;;19.90;78.46
50672;BME280;46021;55.882;37.654;2023-08-12T01:44:49;99746.38;;;19.85;79.02
50672;BME280;46021;55.882;37.654;2023-08-12T01:47:17;99751.03;;;19.81;78.62
50672;BME280;46021;55.882;37.654;2023-08-12T01:49:44;99755.69;;;19.78;78.83
50672;BME280;46021;55.882;37.654;2023-08-12T01:52:11;99758.44;;;19.76;78.59
50672;BME280;46021;55.882;37.654;2023-08-12T01:54:38;99746.16;;;19.75;79.23
50672;BME280;46021;55.882;37.654;2023-08-12T01:57:07;99741.25;;;19.69;78.94
50672;BME280;46021;55.882;37.654;2023-08-12T01:59:34;99737.88;;;19.67;79.19
50672;BME280;46021;55.882;37.654;2023-08-12T02:02:03;99725.81;;;19.63;78.89
50672;BME280;46021;55.882;37.654;2023-08-12T02:04:31;99722.00;;;19.67;79.05
50672;BME280;46021;55.882;37.654;2023-08-12T02:06:58;99718.63;;;19.65;78.22
50672;BME280;46021;55.882;37.654;2023-08-12T02:09:25;99711.22;;;19.70;78.75
50672;BME280;46021;55.882;37.654;2023-08-12T02:11:52;99723.13;;;19.77;78.01
50672;BME280;46021;55.882;37.654;2023-08-12T02:14:21;99716.97;;;19.77;78.19
50672;BME280;46021;55.882;37.654;2023-08-12T02:16:48;99709.75;;;19.66;77.95
50672;BME280;46021;55.882;37.654;2023-08-12T02:19:15;99713.38;;;19.78;77.87
50672;BME280;46021;55.882;37.654;2023-08-12T02:21:42;99704.22;;;19.69;77.53
50672;BME280;46021;55.882;37.654;2023-08-12T02:24:10;99708.88;;;19.65;78.10
50672;BME280;46021;55.882;37.654;2023-08-12T02:26:38;99702.66;;;19.66;78.19
50672;BME280;46021;55.882;37.654;2023-08-12T02:29:05;99698.78;;;19.72;77.51
50672;BME280;46021;55.882;37.654;2023-08-12T02:31:34;99706.47;;;19.75;77.91
50672;BME280;46021;55.882;37.654;2023-08-12T02:34:01;99690.47;;;19.64;78.16
50672;BME280;46021;55.882;37.654;2023-08-12T02:36:29;99706.16;;;19.67;77.81
50672;BME280;46021;55.882;37.654;2023-08-12T02:38:56;99705.19;;;19.68;77.62
50672;BME280;46021;55.882;37.654;2023-08-12T02:41:23;99713.13;;;19.68;78.20
50672;BME280;46021;55.882;37.654;2023-08-12T02:43:50;99716.91;;;19.64;78.22
50672;BME280;46021;55.882;37.654;2023-08-12T02:46:18;99729.31;;;19.63;77.96
50672;BME280;46021;55.882;37.654;2023-08-12T02:48:46;99726.91;;;19.60;78.29
50672;BME280;46021;55.882;37.654;2023-08-12T02:51:14;99726.44;;;19.54;78.86
50672;BME280;46021;55.882;37.654;2023-08-12T02:53:41;99709.09;;;19.50;77.93
50672;BME280;46021;55.882;37.654;2023-08-12T02:56:08;99713.22;;;19.41;78.72
50672;BME280;46021;55.882;37.654;2023-08-12T02:58:35;99719.88;;;19.46;77.98
50672;BME280;46021;55.882;37.654;2023-08-12T03:01:03;99721.59;;;19.47;78.76
50672;BME280;46021;55.882;37.654;2023-08-12T03:03:30;99729.84;;;19.56;77.82
50672;BME280;46021;55.882;37.654;2023-08-12T03:06:00;99729.41;;;19.62;77.75
50672;BME280;46021;55.882;37.654;2023-08-12T03:08:29;99729.41;;;19.62;77.81
50672;BME280;46021;55.882;37.654;2023-08-12T03:10:59;99725.28;;;19.58;77.46
50672;BME280;46021;55.882;37.654;2023-08-12T03:13:27;99720.97;;;19.57;77.73
50672;BME280;46021;55.882;37.654;2023-08-12T03:15:55;99720.97;;;19.57;77.28
50672;BME280;46021;55.882;37.654;2023-08-12T03:18:23;99716.50;;;19.57;77.79
50672;BME280;46021;55.882;37.654;2023-08-12T03:20:50;99717.34;;;19.58;77.70
50672;BME280;46021;55.882;37.654;2023-08-12T03:23:19;99716.41;;;19.59;77.33
50672;BME280;46021;55.882;37.654;2023-08-12T03:25:47;99714.59;;;19.59;77.64
50672;BME280;46021;55.882;37.654;2023-08-12T03:28:16;99705.09;;;19.57;77.93
50672;BME280;46021;55.882;37.654;2023-08-12T03:30:50;99705.09;;;19.57;77.51
50672;BME280;46021;55.882;37.654;2023-08-12T03:33:19;99696.84;;;19.61;77.29
50672;BME280;46021;55.882;37.654;2023-08-12T03:35:47;99679.69;;;19.67;77.53
50672;BME280;46021;55.882;37.654;2023-08-12T03:38:15;99664.66;;;19.67;77.42
50672;BME280;46021;55.882;37.654;2023-08-12T03:40:45;99647.13;;;19.66;77.57
50672;BME280;46021;55.882;37.654;2023-08-12T03:43:14;99646.06;;;19.69;76.72
50672;BME280;46021;55.882;37.654;2023-08-12T03:45:44;99640.59;;;19.72;76.37
50672;BME280;46021;55.882;37.654;2023-08-12T03:48:14;99643.75;;;19.77;76.26
50672;BME280;46021;55.882;37.654;2023-08-12T03:50:41;99648.81;;;19.80;77.17
50672;BME280;46021;55.882;37.654;2023-08-12T03:53:08;99645.00;;;19.84;76.33
50672;BME280;46021;55.882;37.654;2023-08-12T03:55:36;99643.94;;;19.87;76.49
50672;BME280;46021;55.882;37.654;2023-08-12T03:58:05;99645.13;;;19.83;75.98
50672;BME280;46021;55.882;37.654;2023-08-12T04:00:32;99644.59;;;19.91;76.41
50672;BME280;46021;55.882;37.654;2023-08-12T04:03:01;99644.59;;;19.91;75.80
50672;BME280;46021;55.882;37.654;2023-08-12T04:05:28;99645.59;;;20.01;76.32
50672;BME280;46021;55.882;37.654;2023-08-12T04:07:55;99642.63;;;20.05;75.28
50672;BME280;46021;55.882;37.654;2023-08-12T04:10:22;99644.28;;;20.19;75.39
50672;BME280;46021;55.882;37.654;2023-08-12T04:12:49;99656.34;;;20.23;75.92
50672;BME280;46021;55.882;37.654;2023-08-12T04:15:18;99702.16;;;20.24;76.09
50672;BME280;46021;55.882;37.654;2023-08-12T04:17:46;99703.53;;;20.30;75.48
50672;BME280;46021;55.882;37.654;2023-08-12T04:20:13;99700.59;;;20.21;75.38
50672;BME280;46021;55.882;37.654;2023-08-12T04:22:40;99700.25;;;20.26;75.55
50672;BME280;46021;55.882;37.654;2023-08-12T04:25:07;99716.56;;;20.33;75.14
50672;BME280;46021;55.882;37.654;2023-08-12T04:27:34;99713.91;;;20.33;75.02
50672;BME280;46021;55.882;37.654;2023-08-12T04:30:02;99708.81;;;20.30;75.18
50672;BME280;46021;55.882;37.654;2023-08-12T04:32:34;99712.94;;;20.34;75.11
50672;BME280;46021;55.882;37.654;2023-08-12T04:35:01;99711.16;;;20.34;75.08
50672;BME280;46021;55.882;37.654;2023-08-12T04:37:30;99689.34;;;20.31;75.32
50672;BME280;46021;55.882;37.654;2023-08-12T04:39:58;99679.44;;;20.21;74.84
50672;BME280;46021;55.882;37.654;2023-08-12T04:42:26;99672.88;;;20.14;74.40
50672;BME280;46021;55.882;37.654;2023-08-12T04:44:53;99686.31;;;20.11;74.64
50672;BME280;46021;55.882;37.654;2023-08-12T04:47:19;99699.53;;;20.11;74.99
50672;BME280;46021;55.882;37.654;2023-08-12T04:49:48;99706.75;;;20.09;74.71
50672;BME280;46021;55.882;37.654;2023-08-12T04:52:16;99711.84;;;20.12;74.96
50672;BME280;46021;55.882;37.654;2023-08-12T04:54:43;99705.91;;;20.09;75.36
50672;BME280;46021;55.882;37.654;2023-08-12T04:57:10;99702.09;;;20.00;75.07
50672;BME280;46021;55.882;37.654;2023-08-12T04:59:38;99713.75;;;20.10;75.74
50672;BME280;46021;55.882;37.654;2023-08-12T05:02:05;99716.28;;;20.12;75.44
50672;BME280;46021;55.882;37.654;2023-08-12T05:04:33;99719.22;;;20.20;75.36
50672;BME280;46021;55.882;37.654;2023-08-12T05:07:02;99725.81;;;20.14;74.87
50672;BME280;46021;55.882;37.654;2023-08-12T05:09:29;99746.66;;;20.19;75.15
50672;BME280;46021;55.882;37.654;2023-08-12T05:11:57;99738.59;;;20.20;75.06
50672;BME280;46021;55.882;37.654;2023-08-12T05:14:24;99758.38;;;20.28;74.89
50672;BME280;46021;55.882;37.654;2023-08-12T05:16:51;99749.59;;;20.27;74.40
50672;BME280;46021;55.882;37.654;2023-08-12T05:19:18;99731.91;;;20.28;74.67
50672;BME280;46021;55.882;37.654;2023-08-12T05:21:45;99720.88;;;20.34;74.85
50672;BME280;46021;55.882;37.654;2023-08-12T05:24:14;99735.53;;;20.27;74.54
50672;BME280;46021;55.882;37.654;2023-08-12T05:26:42;99736.38;;;20.27;73.81
50672;BME280;46021;55.882;37.654;2023-08-12T05:29:09;99735.28;;;20.30;73.94
50672;BME280;46021;55.882;37.654;2023-08-12T05:31:36;99734.91;;;20.23;73.90
50672;BME280;46021;55.882;37.654;2023-08-12T05:34:04;99730.00;;;20.30;73.78
50672;BME280;46021;55.882;37.654;2023-08-12T05:36:31;99753.53;;;20.34;73.88
50672;BME280;46021;55.882;37.654;2023-08-12T05:38:58;99757.22;;;20.32;74.04
50672;BME280;46021;55.882;37.654;2023-08-12T05:41:26;99762.22;;;20.23;73.76
50672;BME280;46021;55.882;37.654;2023-08-12T05:43:53;99735.56;;;20.14;73.69
50672;BME280;46021;55.882;37.654;2023-08-12T05:46:20;99709.00;;;20.02;73.42
50672;BME280;46021;55.882;37.654;2023-08-12T05:48:47;99697.88;;;19.97;74.08
50672;BME280;46021;55.882;37.654;2023-08-12T05:51:14;99692.22;;;19.91;73.29
50672;BME280;46021;55.882;37.654;2023-08-12T05:53:41;99671.97;;;19.90;73.44
50672;BME280;46021;55.882;37.654;2023-08-12T05:56:08;99664.16;;;19.88;73.06
50672;BME280;46021;55.882;37.654;2023-08-12T05:58:37;99642.59;;;19.81;72.66
50672;BME280;46021;55.882;37.654;2023-08-12T06:01:04;99628.72;;;19.91;72.83
50672;BME280;46021;55.882;37.654;2023-08-12T06:03:31;99626.56;;;19.96;72.46
50672;BME280;46021;55.882;37.654;2023-08-12T06:05:58;99609.22;;;19.92;71.98
50672;BME280;46021;55.882;37.654;2023-08-12T06:08:25;99618.00;;;19.92;72.34
50672;BME280;46021;55.882;37.654;2023-08-12T06:10:52;99605.81;;;20.02;72.21
50672;BME280;46021;55.882;37.654;2023-08-12T06:13:19;99611.94;;;20.03;71.51
50672;BME280;46021;55.882;37.654;2023-08-12T06:15:48;99604.97;;;20.02;71.96
50672;BME280;46021;55.882;37.654;2023-08-12T06:18:15;99595.44;;;19.99;71.69
50672;BME280;46021;55.882;37.654;2023-08-12T06:20:42;99581.69;;;19.94;71.72
50672;BME280;46021;55.882;37.654;2023-08-12T06:23:09;99565.94;;;19.93;71.39
50672;BME280;46021;55.882;37.654;2023-08-12T06:25:36;99548.44;;;20.03;71.00
50672;BME280;46021;55.882;37.654;2023-08-12T06:28:03;99550.41;;;20.12;70.31
50672;BME280;46021;55.882;37.654;2023-08-12T06:30:31;99545.69;;;20.29;69.48
50672;BME280;46021;55.882;37.654;2023-08-12T06:32:59;99555.13;;;20.44;69.02
50672;BME280;46021;55.882;37.654;2023-08-12T06:35:26;99541.09;;;20.66;69.26
50672;BME280;46021;55.882;37.654;2023-08-12T06:37:53;99551.28;;;20.83;68.77
50672;BME280;46021;55.882;37.654;2023-08-12T06:40:21;99560.00;;;21.08;68.62
50672;BME280;46021;55.882;37.654;2023-08-12T06:42:48;99565.91;;;21.23;67.87
50672;BME280;46021;55.882;37.654;2023-08-12T06:45:15;99567.47;;;21.37;67.70
50672;BME280;46021;55.882;37.654;2023-08-12T06:47:42;99559.16;;;21.53;67.13
50672;BME280;46021;55.882;37.654;2023-08-12T06:50:10;99558.41;;;21.73;67.36
50672;BME280;46021;55.882;37.654;2023-08-12T06:52:37;99569.38;;;21.91;66.86
50672;BME280;46021;55.882;37.654;2023-08-12T06:55:05;99569.81;;;21.96;65.78
50672;BME280;46021;55.882;37.654;2023-08-12T06:57:32;99576.81;;;22.09;65.91
50672;BME280;46021;55.882;37.654;2023-08-12T06:59:59;99567.47;;;22.26;65.72
50672;BME280;46021;55.882;37.654;2023-08-12T07:02:31;99563.59;;;22.30;64.77
50672;BME280;46021;55.882;37.654;2023-08-12T07:04:58;99572.94;;;22.45;64.07
50672;BME280;46021;55.882;37.654;2023-08-12T07:07:26;99585.47;;;22.54;63.25
50672;BME280;46021;55.882;37.654;2023-08-12T07:09:54;99581.09;;;22.65;63.57
50672;BME280;46021;55.882;37.654;2023-08-12T07:12:21;99586.41;;;22.86;64.16
50672;BME280;46021;55.882;37.654;2023-08-12T07:14:48;99589.56;;;23.01;63.46
50672;BME280;46021;55.882;37.654;2023-08-12T07:17:15;99594.84;;;23.12;63.25
50672;BME280;46021;55.882;37.654;2023-08-12T07:19:42;99601.84;;;23.13;62.03
50672;BME280;46021;55.882;37.654;2023-08-12T07:22:10;99590.09;;;23.15;62.38
50672;BME280;46021;55.882;37.654;2023-08-12T07:24:38;99593.78;;;23.24;62.42
50672;BME280;46021;55.882;37.654;2023-08-12T07:27:05;99592.00;;;23.34;62.63
50672;BME280;46021;55.882;37.654;2023-08-12T07:29:32;99600.25;;;23.31;62.53
50672;BME280;46021;55.882;37.654;2023-08-12T07:31:59;99589.97;;;23.17;62.04
50672;BME280;46021;55.882;37.654;2023-08-12T07:34:26;99599.09;;;23.24;61.95
50672;BME280;46021;55.882;37.654;2023-08-12T07:36:53;99594.03;;;23.21;61.80
50672;BME280;46021;55.882;37.654;2023-08-12T07:39:20;99591.97;;;23.25;60.92
50672;BME280;46021;55.882;37.654;2023-08-12T07:41:49;99582.69;;;23.19;60.83
50672;BME280;46021;55.882;37.654;2023-08-12T07:44:16;99587.84;;;23.42;61.21
50672;BME280;46021;55.882;37.654;2023-08-12T07:46:43;99583.31;;;23.63;61.61
50672;BME280;46021;55.882;37.654;2023-08-12T07:49:10;99578.00;;;23.63;60.12
50672;BME280;46021;55.882;37.654;2023-08-12T07:51:37;99595.91;;;23.61;59.84
50672;BME280;46021;55.882;37.654;2023-08-12T07:54:04;99588.63;;;23.63;59.87
50672;BME280;46021;55.882;37.654;2023-08-12T07:56:31;99584.88;;;23.35;59.68
50672;BME280;46021;55.882;37.654;2023-08-12T07:59:00;99591.03;;;23.35;60.41
50672;BME280;46021;55.882;37.654;2023-08-12T08:01:27;99593.53;;;23.27;60.88
50672;BME280;46021;55.882;37.654;2023-08-12T08:03:54;99602.25;;;23.08;60.55
50672;BME280;46021;55.882;37.654;2023-08-12T08:06:22;99600.91;;;23.03;61.05
50672;BME280;46021;55.882;37.654;2023-08-12T08:08:49;99603.78;;;22.90;61.65
50672;BME280;46021;55.882;37.654;2023-08-12T08:11:16;99607.44;;;22.77;61.67
50672;BME280;46021;55.882;37.654;2023-08-12T08:13:43;99633.44;;;22.74;61.75
50672;BME280;46021;55.882;37.654;2023-08-12T08:16:12;99658.34;;;22.73;61.80
50672;BME280;46021;55.882;37.654;2023-08-12T08:18:39;99661.88;;;22.62;61.38
50672;BME280;46021;55.882;37.654;2023-08-12T08:21:06;99651.88;;;22.54;61.74
50672;BME280;46021;55.882;37.654;2023-08-12T08:23:33;99644.06;;;22.42;62.24
50672;BME280;46021;55.882;37.654;2023-08-12T08:26:00;99609.22;;;22.24;62.47
50672;BME280;46021;55.882;37.654;2023-08-12T08:28:28;99611.81;;;22.03;62.68
50672;BME280;46021;55.882;37.654;2023-08-12T08:30:55;99602.78;;;21.94;63.14
50672;BME280;46021;55.882;37.654;2023-08-12T08:33:25;99605.94;;;21.88;63.58
50672;BME280;46021;55.882;37.654;2023-08-12T08:35:53;99633.69;;;21.84;64.36
50672;BME280;46021;55.882;37.654;2023-08-12T08:38:20;99622.56;;;21.90;64.75
50672;BME280;46021;55.882;37.654;2023-08-12T08:40:49;99613.88;;;21.88;65.01
50672;BME280;46021;55.882;37.654;2023-08-12T08:43:20;99612.28;;;21.96;64.99
50672;BME280;46021;55.882;37.654;2023-08-12T08:45:49;99610.13;;;22.02;64.92
50672;BME280;46021;55.882;37.654;2023-08-12T08:48:18;99604.09;;;21.88;64.98
50672;BME280;46021;55.882;37.654;2023-08-12T08:50:48;99612.19;;;21.75;65.24
50672;BME280;46021;55.882;37.654;2023-08-12T08:53:17;99609.44;;;21.66;65.72
50672;BME280;46021;55.882;37.654;2023-08-12T08:55:45;99588.69;;;21.37;67.05
50672;BME280;46021;55.882;37.654;2023-08-12T08:58:13;99632.81;;;21.49;66.79
50672;BME280;46021;55.882;37.654;2023-08-12T09:00:40;99641.16;;;21.56;66.87
50672;BME280;46021;55.882;37.654;2023-08-12T09:03:09;99654.31;;;21.69;67.07
50672;BME280;46021;55.882;37.654;2023-08-12T09:05:37;99644.53;;;21.69;66.87
50672;BME280;46021;55.882;37.654;2023-08-12T09:08:07;99631.50;;;21.66;66.79
50672;BME280;46021;55.882;37.654;2023-08-12T09:10:39;99623.09;;;21.61;66.85
50672;BME280;46021;55.882;37.654;2023-08-12T09:13:07;99624.03;;;21.49;67.54
50672;BME280;46021;55.882;37.654;2023-08-12T09:15:34;99617.28;;;21.45;66.74
50672;BME280;46021;55.882;37.654;2023-08-12T09:18:04;99629.06;;;21.40;66.92
50672;BME280;46021;55.882;37.654;2023-08-12T09:20:32;99634.38;;;21.40;66.85
50672;BME280;46021;55.882;37.654;2023-08-12T09:22:59;99639.41;;;21.21;67.67
50672;BME280;46021;55.882;37.654;2023-08-12T09:25:30;99665.44;;;21.27;67.70
50672;BME280;46021;55.882;37.654;2023-08-12T09:27:59;99665.19;;;21.30;67.86
50672;BME280;46021;55.882;37.654;2023-08-12T09:30:28;99665.56;;;21.26;67.77
50672;BME280;46021;55.882;37.654;2023-08-12T09:33:00;99651.31;;;21.04;68.47
50672;BME280;46021;55.882;37.654;2023-08-12T09:35:36;99662.78;;;21.16;67.59
50672;BME280;46021;55.882;37.654;2023-08-12T09:38:04;99671.78;;;21.13;67.75
50672;BME280;46021;55.882;37.654;2023-08-12T09:40:34;99666.16;;;21.29;67.66
50672;BME280;46021;55.882;37.654;2023-08-12T09:43:02;99634.13;;;21.32;67.65
50672;BME280;46021;55.882;37.654;2023-08-12T09:45:30;99631.34;;;21.34;67.21
50672;BME280;46021;55.882;37.654;2023-08-12T09:47:57;99639.66;;;21.29;67.08
50672;BME280;46021;55.882;37.654;2023-08-12T09:50:25;99696.91;;;21.32;66.84
50672;BME280;46021;55.882;37.654;2023-08-12T09:52:54;99678.94;;;21.24;67.45
50672;BME280;46021;55.882;37.654;2023-08-12T09:55:23;99679.75;;;21.25;67.61
50672;BME280;46021;55.882;37.654;2023-08-12T09:57:53;99681.56;;;21.24;67.95
50672;BME280;46021;55.882;37.654;2023-08-12T10:00:21;99667.69;;;21.09;68.04
50672;BME280;46021;55.882;37.654;2023-08-12T10:02:51;99654.28;;;20.99;68.25
50672;BME280;46021;55.882;37.654;2023-08-12T10:05:21;99643.53;;;20.90;69.06
50672;BME280;46021;55.882;37.654;2023-08-12T10:07:49;99637.00;;;20.82;68.76
50672;BME280;46021;55.882;37.654;2023-08-12T10:10:17;99642.56;;;20.79;69.10
50672;BME280;46021;55.882;37.654;2023-08-12T10:12:45;99640.03;;;20.78;69.94
50672;BME280;46021;55.882;37.654;2023-08-12T10:15:14;99647.66;;;20.70;69.55
50672;BME280;46021;55.882;37.654;2023-08-12T10:17:41;99640.72;;;20.69;69.66
50672;BME280;46021;55.882;37.654;2023-08-12T10:20:12;99648.41;;;20.72;70.38
50672;BME280;46021;55.882;37.654;2023-08-12T10:22:41;99646.00;;;20.69;70.48
50672;BME280;46021;55.882;37.654;2023-08-12T10:25:13;99635.06;;;20.49;71.59
50672;BME280;46021;55.882;37.654;2023-08-12T10:27:41;99633.34;;;20.48;70.79
50672;BME280;46021;55.882;37.654;2023-08-12T10:30:09;99627.22;;;20.23;71.47
50672;BME280;46021;55.882;37.654;2023-08-12T10:32:37;99643.38;;;20.32;72.00
50672;BME280;46021;55.882;37.654;2023-08-12T10:35:06;99650.13;;;20.36;72.39
50672;BME280;46021;55.882;37.654;2023-08-12T10:37:34;99638.53;;;20.25;72.61
50672;BME280;46021;55.882;37.654;2023-08-12T10:40:03;99645.84;;;20.22;72.56
50672;BME280;46021;55.882;37.654;2023-08-12T10:42:40;99645.97;;;20.20;73.34
50672;BME280;46021;55.882;37.654;2023-08-12T10:45:09;99636.28;;;20.08;73.98
50672;BME280;46021;55.882;37.654;2023-08-12T10:47:41;99621.84;;;20.12;73.23
50672;BME280;46021;55.882;37.654;2023-08-12T10:50:19;99601.53;;;20.13;73.49
50672;BME280;46021;55.882;37.654;2023-08-12T10:52:47;99597.75;;;20.04;74.36
50672;BME280;46021;55.882;37.654;2023-08-12T10:55:18;99606.44;;;20.06;73.60
50672;BME280;46021;55.882;37.654;2023-08-12T10:57:47;99607.78;;;20.12;73.85
50672;BME280;46021;55.882;37.654;2023-08-12T11:00:15;99608.69;;;20.23;73.45
50672;BME280;46021;55.882;37.654;2023-08-12T11:02:49;99607.50;;;20.28;73.37
50672;BME280;46021;55.882;37.654;2023-08-12T11:05:17;99594.06;;;20.31;72.96
50672;BME280;46021;55.882;37.654;2023-08-12T11:07:46;99609.88;;;20.19;72.70
50672;BME280;46021;55.882;37.654;2023-08-12T11:10:16;99618.66;;;20.20;73.23
50672;BME280;46021;55.882;37.654;2023-08-12T11:12:48;99637.53;;;20.15;72.54
50672;BME280;46021;55.882;37.654;2023-08-12T11:15:16;99658.88;;;20.25;73.12
50672;BME280;46021;55.882;37.654;2023-08-12T11:17:43;99660.56;;;20.26;73.69
50672;BME280;46021;55.882;37.654;2023-08-12T11:20:13;99660.13;;;20.32;73.59
50672;BME280;46021;55.882;37.654;2023-08-12T11:22:41;99656.34;;;20.23;72.73
50672;BME280;46021;55.882;37.654;2023-08-12T11:25:10;99647.88;;;20.18;73.09
50672;BME280;46021;55.882;37.654;2023-08-12T11:27:39;99652.78;;;20.12;73.63
50672;BME280;46021;55.882;37.654;2023-08-12T11:30:08;99661.56;;;20.12;72.99
50672;BME280;46021;55.882;37.654;2023-08-12T11:32:36;99654.56;;;20.11;73.37
50672;BME280;46021;55.882;37.654;2023-08-12T11:35:05;99665.47;;;20.19;73.62
50672;BME280;46021;55.882;37.654;2023-08-12T11:37:35;99657.19;;;20.11;74.12
50672;BME280;46021;55.882;37.654;2023-08-12T11:40:03;99650.97;;;20.12;73.53
50672;BME280;46021;55.882;37.654;2023-08-12T11:42:31;99653.28;;;20.17;73.88
50672;BME280;46021;55.882;37.654;2023-08-12T11:44:58;99643.47;;;20.06;75.74
50672;BME280;46021;55.882;37.654;2023-08-12T11:47:25;99631.75;;;19.97;75.54
50672;BME280;46021;55.882;37.654;2023-08-12T11:49:52;99646.44;;;20.01;75.36
50672;BME280;46021;55.882;37.654;2023-08-12T11:52:19;99651.09;;;19.98;75.38
50672;BME280;46021;55.882;37.654;2023-08-12T11:54:49;99651.78;;;19.89;75.98
50672;BME280;46021;55.882;37.654;2023-08-12T11:57:17;99660.13;;;19.82;76.05
50672;BME280;46021;55.882;37.654;2023-08-12T11:59:44;99653.66;;;19.86;76.79
50672;BME280;46021;55.882;37.654;2023-08-12T12:02:11;99663.50;;;19.84;76.61
50672;BME280;46021;55.882;37.654;2023-08-12T12:04:41;99640.69;;;19.83;77.14
50672;BME280;46021;55.882;37.654;2023-08-12T12:07:19;99630.19;;;19.69;77.80
50672;BME280;46021;55.882;37.654;2023-08-12T12:09:46;99638.34;;;19.79;77.67
50672;BME280;46021;55.882;37.654;2023-08-12T12:12:15;99641.13;;;19.77;77.31
50672;BME280;46021;55.882;37.654;2023-08-12T12:14:43;99637.84;;;19.74;77.84
50672;BME280;46021;55.882;37.654;2023-08-12T12:17:10;99631.88;;;19.70;78.43
50672;BME280;46021;55.882;37.654;2023-08-12T12:19:40;99641.00;;;19.66;78.32
50672;BME280;46021;55.882;37.654;2023-08-12T12:22:07;99644.69;;;19.63;78.13
50672;BME280;46021;55.882;37.654;2023-08-12T12:24:44;99636.13;;;19.60;79.17
50672;BME280;46021;55.882;37.654;2023-08-12T12:27:12;99626.63;;;19.44;79.25
50672;BME280;46021;55.882;37.654;2023-08-12T12:29:40;99623.88;;;19.33;79.95
50672;BME280;46021;55.882;37.654;2023-08-12T12:32:07;99610.56;;;19.22;79.62
50672;BME280;46021;55.882;37.654;2023-08-12T12:34:34;99615.31;;;19.17;80.03
50672;BME280;46021;55.882;37.654;2023-08-12T12:37:01;99605.78;;;19.01;81.51
50672;BME280;46021;55.882;37.654;2023-08-12T12:39:28;99594.09;;;18.78;82.03
50672;BME280;46021;55.882;37.654;2023-08-12T12:41:55;99571.56;;;18.60;83.33
50672;BME280;46021;55.882;37.654;2023-08-12T12:44:25;99570.94;;;18.56;83.28
50672;BME280;46021;55.882;37.654;2023-08-12T12:46:56;99568.38;;;18.42;84.20
50672;BME280;46021;55.882;37.654;2023-08-12T12:49:31;99551.03;;;18.25;85.05
50672;BME280;46021;55.882;37.654;2023-08-12T12:51:58;99541.72;;;18.19;85.68
50672;BME280;46021;55.882;37.654;2023-08-12T12:54:25;99529.47;;;18.18;86.14